createdAt,value
2023-03-10T00:03:15.297Z,98456.47
2023-03-10T00:07:17.422Z,98444.50
2023-03-10T00:11:19.408Z,98445.34
2023-03-10T00:15:20.966Z,98435.13
2023-03-10T00:19:22.502Z,98424.84
2023-03-10T00:23:24.086Z,98414.59
2023-03-10T00:27:25.613Z,98405.19
2023-03-10T00:31:28.412Z,98402.63
2023-03-10T00:35:29.965Z,98401.81
2023-03-10T00:39:31.742Z,98400.94
2023-03-10T00:43:34.400Z,98405.22
2023-03-10T00:47:36.138Z,98416.31
2023-03-10T00:51:37.737Z,98403.50
2023-03-10T00:55:39.292Z,98395.78
2023-03-10T00:59:49.995Z,98388.97
2023-03-10T01:03:54.461Z,98383.84
2023-03-10T01:07:56.109Z,98361.63
2023-03-10T01:11:57.665Z,98364.19
2023-03-10T01:15:59.452Z,98348.78
2023-03-10T01:20:01.328Z,98347.97
2023-03-10T01:24:04.701Z,98354.78
2023-03-10T01:28:06.529Z,98343.69
2023-03-10T01:32:08.092Z,98338.56
2023-03-10T01:36:28.397Z,98331.72
2023-03-10T01:40:30.261Z,98335.16
2023-03-10T01:44:31.789Z,98327.47
2023-03-10T01:48:35.952Z,98324.06
2023-03-10T01:52:38.250Z,98317.25
2023-03-10T01:56:41.105Z,98320.63
2023-03-10T02:00:43.950Z,98311.22
2023-03-10T02:04:50.923Z,98300.09
2023-03-10T02:09:02.402Z,98305.22
2023-03-10T02:13:04.394Z,98298.41
2023-03-10T02:17:08.216Z,98294.16
2023-03-10T02:21:54.131Z,98296.72
2023-03-10T02:26:09.131Z,98300.13
2023-03-10T02:30:33.792Z,98289.00
2023-03-10T02:34:35.511Z,98276.22
2023-03-10T02:38:37.129Z,98284.75
2023-03-10T02:42:39.729Z,98283.03
2023-03-10T02:46:41.445Z,98271.09
2023-03-10T02:50:45.296Z,98262.56
2023-03-10T02:54:47.127Z,98261.72
2023-03-10T02:58:48.896Z,98251.47
2023-03-10T03:02:51.418Z,98247.19
2023-03-10T03:06:53.121Z,98240.38
2023-03-10T03:10:56.325Z,98242.94
2023-03-10T03:14:58.031Z,98239.50
2023-03-10T03:18:59.970Z,98242.91
2023-03-10T03:23:01.679Z,98240.38
2023-03-10T03:27:05.305Z,98233.53
2023-03-10T03:31:06.976Z,98229.25
2023-03-10T03:35:11.965Z,98226.72
2023-03-10T03:39:17.316Z,98233.53
2023-03-10T03:43:21.391Z,98230.13
2023-03-10T03:47:23.484Z,98233.56
2023-03-10T03:51:25.275Z,98220.75
2023-03-10T03:55:27.083Z,98233.56
2023-03-10T03:59:28.797Z,98227.56
2023-03-10T04:03:31.200Z,98223.28
2023-03-10T04:07:33.513Z,98222.44
2023-03-10T04:11:36.522Z,98216.47
2023-03-10T04:15:38.428Z,98215.63
2023-03-10T04:19:40.022Z,98207.94
2023-03-10T04:23:45.203Z,98209.63
2023-03-10T04:27:50.819Z,98209.59
2023-03-10T04:32:04.820Z,98201.91
2023-03-10T04:36:09.372Z,98183.13
2023-03-10T04:40:13.106Z,98194.22
2023-03-10T04:44:29.798Z,98194.22
2023-03-10T04:48:33.585Z,98189.91
2023-03-10T04:52:35.881Z,98186.53
2023-03-10T04:56:37.483Z,98187.38
2023-03-10T05:00:50.162Z,98181.44
2023-03-10T05:04:58.908Z,98173.78
2023-03-10T05:09:03.457Z,98155.84
2023-03-10T05:13:05.648Z,98155.00
2023-03-10T05:17:08.152Z,98155.00
2023-03-10T05:21:12.464Z,98137.09
2023-03-10T05:25:14.987Z,98127.72
2023-03-10T05:29:17.553Z,98134.50
2023-03-10T05:33:24.386Z,98137.03
2023-03-10T05:37:26.553Z,98137.94
2023-03-10T05:41:29.826Z,98139.63
2023-03-10T05:45:33.344Z,98130.28
2023-03-10T05:49:37.388Z,98126.88
2023-03-10T05:53:41.101Z,98111.53
2023-03-10T05:57:47.310Z,98107.28
2023-03-10T06:01:49.016Z,98107.28
2023-03-10T06:05:50.710Z,98103.03
2023-03-10T06:09:54.285Z,98102.19
2023-03-10T06:13:55.923Z,98077.44
2023-03-10T06:17:57.471Z,98076.59
2023-03-10T06:21:59.032Z,98088.50
2023-03-10T06:26:07.271Z,98082.53
2023-03-10T06:30:09.621Z,98094.47
2023-03-10T06:34:11.304Z,98090.22
2023-03-10T06:38:13.099Z,98090.19
2023-03-10T06:42:14.734Z,98084.22
2023-03-10T06:46:16.754Z,98087.63
2023-03-10T06:50:18.369Z,98092.75
2023-03-10T06:54:20.138Z,98081.66
2023-03-10T06:58:21.758Z,98084.19
2023-03-10T07:02:23.834Z,98075.63
2023-03-10T07:06:26.016Z,98068.75
2023-03-10T07:10:27.614Z,98069.56
2023-03-10T07:14:29.172Z,98075.56
2023-03-10T07:18:30.897Z,98083.19
2023-03-10T07:22:32.411Z,98075.44
2023-03-10T07:26:33.944Z,98077.00
2023-03-10T07:30:36.560Z,98072.66
2023-03-10T07:34:38.124Z,98066.72
2023-03-10T07:38:40.002Z,98087.22
2023-03-10T07:42:44.404Z,98044.44
2023-03-10T07:46:46.352Z,98041.03
2023-03-10T07:50:55.988Z,98058.25
2023-03-10T07:54:57.622Z,98090.81
2023-03-10T07:59:00.694Z,98107.09
2023-03-10T08:03:02.355Z,98141.22
2023-03-10T08:07:03.921Z,98127.72
2023-03-10T08:11:09.729Z,98139.69
2023-03-10T08:15:11.506Z,98136.28
2023-03-10T08:19:13.102Z,98142.25
2023-03-10T08:27:51.883Z,98161.00
2023-03-10T08:31:53.435Z,98165.28
2023-03-10T08:36:07.229Z,98162.72
2023-03-10T08:40:11.000Z,98156.72
2023-03-10T08:44:15.424Z,98160.13
2023-03-10T08:48:17.303Z,98154.97
2023-03-10T08:52:19.048Z,98166.00
2023-03-10T08:56:21.669Z,98165.94
2023-03-10T09:00:24.581Z,98163.28
2023-03-10T09:04:26.115Z,98170.19
2023-03-10T09:08:27.995Z,98171.13
2023-03-10T09:12:34.502Z,98179.66
2023-03-10T09:16:39.413Z,98178.81
2023-03-10T09:20:42.071Z,98168.56
2023-03-10T09:24:43.619Z,98162.47
2023-03-10T09:28:45.636Z,98158.84
2023-03-10T09:32:47.201Z,98170.59
2023-03-10T09:36:48.771Z,98155.97
2023-03-10T09:41:14.122Z,98157.75
2023-03-10T09:45:53.230Z,98159.38
2023-03-10T09:50:12.635Z,98166.31
2023-03-10T09:54:20.355Z,98161.31
2023-03-10T09:58:39.258Z,98152.75
2023-03-10T10:02:45.414Z,98162.22
2023-03-10T10:06:48.951Z,98160.47
2023-03-10T10:10:54.776Z,98166.50
2023-03-10T10:15:13.070Z,98175.94
2023-03-10T10:19:23.810Z,98182.84
2023-03-10T10:24:03.901Z,98181.16
2023-03-10T10:28:19.216Z,98178.56
2023-03-10T10:32:20.959Z,98181.94
2023-03-10T10:36:28.218Z,98186.16
2023-03-10T10:40:33.461Z,98180.13
2023-03-10T10:44:41.286Z,98174.16
2023-03-10T10:48:47.726Z,98175.84
2023-03-10T10:52:53.061Z,98189.56
2023-03-10T10:56:56.992Z,98178.44
2023-03-10T11:01:07.378Z,98192.13
2023-03-10T11:05:11.950Z,98186.97
2023-03-10T11:09:20.218Z,98188.69
2023-03-10T11:14:03.130Z,98185.28
2023-03-10T11:18:08.881Z,98206.66
2023-03-10T11:22:27.873Z,98206.59
2023-03-10T11:26:54.215Z,98202.38
2023-03-10T11:31:12.781Z,98214.28
2023-03-10T11:35:38.761Z,98202.25
2023-03-10T11:39:59.131Z,98205.72
2023-03-10T11:44:34.664Z,98214.41
2023-03-10T11:49:07.901Z,98211.88
2023-03-10T11:53:38.657Z,98209.41
2023-03-10T11:57:44.772Z,98214.56
2023-03-10T12:02:19.416Z,98192.31
2023-03-10T12:06:33.157Z,98178.47
2023-03-10T12:10:41.436Z,98182.69
2023-03-10T12:14:44.897Z,98187.66
2023-03-10T12:18:46.958Z,98180.72
2023-03-10T12:22:59.122Z,98188.50
2023-03-10T12:27:03.688Z,98189.47
2023-03-10T12:31:06.782Z,98189.56
2023-03-10T12:35:41.372Z,98193.09
2023-03-10T12:39:44.218Z,98188.88
2023-03-10T12:44:01.405Z,98189.75
2023-03-10T12:48:16.847Z,98179.56
2023-03-10T12:52:28.245Z,98177.91
2023-03-10T12:57:05.220Z,98163.16
2023-03-10T13:01:13.417Z,98155.28
2023-03-10T13:05:32.832Z,98160.28
2023-03-10T13:09:43.557Z,98155.13
2023-03-10T13:13:48.038Z,98147.38
2023-03-10T13:17:49.779Z,98149.03
2023-03-10T13:21:52.774Z,98164.53
2023-03-10T13:25:59.517Z,98157.72
2023-03-10T13:30:20.108Z,98164.56
2023-03-10T13:34:23.829Z,98169.81
2023-03-10T13:38:25.408Z,98174.06
2023-03-10T13:42:42.788Z,98165.47
2023-03-10T13:46:54.163Z,98169.81
2023-03-10T13:51:18.112Z,98158.59
2023-03-10T13:55:19.955Z,98155.97
2023-03-10T13:59:25.559Z,98171.28
2023-03-10T14:03:27.150Z,98190.31
2023-03-10T14:07:36.086Z,98215.22
2023-03-10T14:11:46.853Z,98218.69
2023-03-10T14:15:55.515Z,98215.28
2023-03-10T14:19:57.357Z,98215.28
2023-03-10T14:24:04.701Z,98234.16
2023-03-10T14:28:12.718Z,98227.41
2023-03-10T14:32:14.345Z,98241.16
2023-03-10T14:36:16.049Z,98257.34
2023-03-10T14:40:19.414Z,98245.41
2023-03-10T14:44:21.121Z,98251.34
2023-03-10T14:48:25.153Z,98271.88
2023-03-10T14:52:27.375Z,98272.78
2023-03-10T14:56:29.942Z,98279.63
2023-03-10T15:00:32.753Z,98290.75
2023-03-10T15:04:34.364Z,98329.16
2023-03-10T15:08:35.966Z,98308.63
2023-03-10T15:12:38.982Z,98335.97
2023-03-10T15:16:40.873Z,98371.75
2023-03-10T15:20:42.458Z,98381.16
2023-03-10T15:24:44.109Z,98385.44
2023-03-10T15:28:45.671Z,98396.53
2023-03-10T15:32:47.656Z,98374.38
2023-03-10T15:36:49.414Z,98391.38
2023-03-10T15:40:51.091Z,98394.75
2023-03-10T15:44:52.653Z,98389.63
2023-03-10T15:48:54.274Z,98406.69
2023-03-10T15:52:58.169Z,98411.00
2023-03-10T15:56:59.909Z,98407.56
2023-03-10T16:01:09.766Z,98443.31
2023-03-10T16:05:11.872Z,98403.19
2023-03-10T16:09:13.418Z,98398.22
2023-03-10T16:13:15.101Z,98382.00
2023-03-10T16:17:17.015Z,98375.13
2023-03-10T16:21:18.955Z,98396.28
2023-03-10T16:25:22.485Z,98425.19
2023-03-10T16:29:24.518Z,98430.25
2023-03-10T16:33:26.579Z,98461.72
2023-03-10T16:37:28.863Z,98453.13
2023-03-10T16:41:30.409Z,98436.81
2023-03-10T16:45:32.439Z,98430.78
2023-03-10T16:49:34.999Z,98452.06
2023-03-10T16:53:36.505Z,98461.25
2023-03-10T16:57:38.288Z,98465.44
2023-03-10T17:01:40.830Z,98485.00
2023-03-10T17:05:42.400Z,98498.44
2023-03-10T17:09:45.637Z,98518.78
2023-03-10T17:13:49.623Z,98509.34
2023-03-10T17:17:51.843Z,98482.03
2023-03-10T17:21:53.444Z,98470.94
2023-03-10T17:25:56.883Z,98509.03
2023-03-10T17:30:00.230Z,98544.47
2023-03-10T17:34:05.678Z,98556.16
2023-03-10T17:38:07.484Z,98559.06
2023-03-10T17:42:09.198Z,98574.31
2023-03-10T17:46:16.658Z,98584.63
2023-03-10T17:50:18.409Z,98604.19
2023-03-10T17:54:21.933Z,98619.50
2023-03-10T17:58:24.033Z,98605.84
2023-03-10T18:02:25.787Z,98633.84
2023-03-10T18:06:32.168Z,98607.47
2023-03-10T18:10:35.447Z,98586.28
2023-03-10T18:14:37.061Z,98598.03
2023-03-10T18:18:38.758Z,98626.88
2023-03-10T18:22:40.286Z,98608.94
2023-03-10T18:26:43.324Z,98613.03
2023-03-10T18:30:49.198Z,98622.13
2023-03-10T18:34:51.125Z,98643.41
2023-03-10T18:38:53.370Z,98631.47
2023-03-10T18:42:55.044Z,98657.69
2023-03-10T18:46:56.630Z,98659.28
2023-03-10T18:50:59.747Z,98694.84
2023-03-10T18:55:01.411Z,98784.78
2023-03-10T18:59:03.098Z,98768.28
2023-03-10T19:03:04.869Z,98766.50
2023-03-10T19:07:07.213Z,98824.97
2023-03-10T19:11:09.038Z,98820.50
2023-03-10T19:15:13.508Z,98847.66
2023-03-10T19:19:15.080Z,98882.13
2023-03-10T19:23:17.017Z,98908.22
2023-03-10T19:27:18.699Z,98940.22
2023-03-10T19:31:20.451Z,98956.06
2023-03-10T19:35:22.194Z,98940.50
2023-03-10T19:39:24.080Z,98995.41
2023-03-10T19:43:25.703Z,99045.94
2023-03-10T19:47:30.468Z,99067.75
2023-03-10T19:51:32.131Z,99066.09
2023-03-10T19:55:34.422Z,99104.16
2023-03-10T19:59:36.201Z,99123.69
2023-03-10T20:03:38.010Z,99087.88
2023-03-10T20:07:40.780Z,99133.31
2023-03-10T20:11:42.470Z,99140.75
2023-03-10T20:15:44.206Z,99158.41
2023-03-10T20:19:45.810Z,99184.72
2023-03-10T20:23:48.599Z,99220.44
2023-03-10T20:27:52.505Z,99236.47
2023-03-10T20:31:54.153Z,99247.56
2023-03-10T20:35:55.903Z,99254.38
2023-03-10T20:39:57.670Z,99264.47
2023-03-10T20:43:59.292Z,99268.34
2023-03-10T20:48:00.880Z,99316.31
2023-03-10T20:52:02.640Z,99315.34
2023-03-10T20:56:09.378Z,99329.56
2023-03-10T21:00:12.243Z,99360.78
2023-03-10T21:04:13.845Z,99372.66
2023-03-10T21:08:15.501Z,99402.97
2023-03-10T21:12:18.728Z,99396.28
2023-03-10T21:16:21.014Z,99401.28
2023-03-10T21:20:23.389Z,99409.09
2023-03-10T21:24:25.094Z,99400.84
2023-03-10T21:28:26.717Z,99415.00
2023-03-10T21:32:28.394Z,99430.09
2023-03-10T21:36:30.615Z,99418.56
2023-03-10T21:40:32.351Z,99420.34
2023-03-10T21:44:34.974Z,99423.53
2023-03-10T21:48:37.210Z,99431.25
2023-03-10T21:52:39.225Z,99446.47
2023-03-10T21:56:40.951Z,99439.78
2023-03-10T22:00:42.769Z,99423.63
2023-03-10T22:04:44.358Z,99452.22
2023-03-10T22:08:46.063Z,99460.41
2023-03-10T22:12:48.056Z,99476.28
2023-03-10T22:16:49.782Z,99471.63
2023-03-10T22:20:51.397Z,99477.53
2023-03-10T22:24:53.703Z,99499.25
2023-03-10T22:28:55.254Z,99482.78
2023-03-10T22:32:56.830Z,99494.63
2023-03-10T22:36:58.549Z,99508.97
2023-03-10T22:41:00.789Z,99507.13
2023-03-10T22:45:02.867Z,99519.13
2023-03-10T22:49:04.549Z,99522.44
2023-03-10T22:53:09.160Z,99525.94
2023-03-10T22:57:15.026Z,99529.97
2023-03-10T23:01:16.665Z,99522.75
2023-03-10T23:05:18.349Z,99519.94
2023-03-10T23:09:19.973Z,99535.34
2023-03-10T23:13:21.605Z,99538.00
2023-03-10T23:17:23.210Z,99532.16
2023-03-10T23:21:24.796Z,99536.03
2023-03-10T23:25:33.782Z,99572.13
2023-03-10T23:29:35.498Z,99571.13
2023-03-10T23:33:37.018Z,99574.22
2023-03-10T23:37:38.851Z,99570.50
2023-03-10T23:41:40.437Z,99592.97
2023-03-10T23:45:42.099Z,99586.72
2023-03-10T23:49:43.757Z,99604.91
2023-03-10T23:53:45.698Z,99613.88
2023-03-10T23:57:47.608Z,99632.22
